首页
METAR-TAF:

METAR-TAF

机场 :

卡塞尔, 德国

纬度: 51-24N, 经度: 009-23E, 海拔: 277米

当前天气观测

该预报发布于4小时和5分钟前的17:50 UTC
风速10节,风向北转东北,在北转西北东北之间变化
温度 2°C
湿度 64%
气压 1028 hPa
能见度10公里或以上
散云层高于2200英尺
多云层高于3600英尺

METAR: EDVK 291750Z 02010KT 340V040 9999 SCT022 BKN036 02/M04 Q1028

时间: 23:55 (21:55 UTC)

预报

该预报发布于4小时和55分钟前的17:00 UTC
预报有效从29日的 18点(UTC)到 30日的 03点(UTC)
风速15节,风向,有时为25节阵风
能见度10公里或以上
多云层高于2500英尺
短暂存在
从 29日的 18点(UTC)到 29日的 20点(UTC)
能見度: 4500
多云层高于1200英尺
小雨, 雪
几率 40% :
短暂存在
从 29日的 18点(UTC)到 29日的 20点(UTC)
能見度: 2000
多云层高于400英尺
小雪
成为
从 29日的 18点(UTC)到 29日的 20点(UTC)
风速8节,风向北转西北

TAF: EDVK 291700Z 2918/3003 01015G25KT 9999 BKN025 TEMPO 2918/2920 4500 -RASN BKN012 PROB40 TEMPO 2918/2920 2000 -SN BKN004 BECMG 2918/2920 34008KT

超过4000个机场的气象观测和天气预报(METAR&TAF报告)。

可查询的气象台以黄色和红色小点在地图上表示。

将鼠标移到小点上方,可查看气象台名称。

然后点击查看天气观测和预报。

如需切换地图:点击带黑十字的绿色按钮放大地图;点击带横线的绿色按钮缩小地图;或者点击绿色箭头查看邻近地区的地图。


METAR-TAF: